sensor_id;sensor_type;location;lat;lon;timestamp;pressure;altitude;pressure_sealevel;temperature;humidity
63694;BME280;49839;51.798;10.954;2023-04-26T00:01:41;99051.44;;;3.91;nan
63694;BME280;49839;51.798;10.954;2023-04-26T00:04:10;99043.78;;;3.85;nan
63694;BME280;49839;51.798;10.954;2023-04-26T00:06:38;99049.16;;;3.80;nan
63694;BME280;49839;51.798;10.954;2023-04-26T00:09:07;99048.38;;;3.76;nan
63694;BME280;49839;51.798;10.954;2023-04-26T00:11:35;99048.44;;;3.73;nan
63694;BME280;49839;51.798;10.954;2023-04-26T00:14:02;99050.25;;;3.71;nan
63694;BME280;49839;51.798;10.954;2023-04-26T00:16:30;99045.13;;;3.68;nan
63694;BME280;49839;51.798;10.954;2023-04-26T00:18:58;99049.66;;;3.62;nan
63694;BME280;49839;51.798;10.954;2023-04-26T00:21:27;99043.66;;;3.58;nan
63694;BME280;49839;51.798;10.954;2023-04-26T00:23:54;99049.78;;;3.57;nan
63694;BME280;49839;51.798;10.954;2023-04-26T00:26:23;99055.06;;;3.54;nan
63694;BME280;49839;51.798;10.954;2023-04-26T00:28:51;99049.03;;;3.52;nan
63694;BME280;49839;51.798;10.954;2023-04-26T00:31:19;99047.44;;;3.48;nan
63694;BME280;49839;51.798;10.954;2023-04-26T00:33:46;99050.97;;;3.45;nan
63694;BME280;49839;51.798;10.954;2023-04-26T00:36:14;99052.72;;;3.45;nan
63694;BME280;49839;51.798;10.954;2023-04-26T00:38:46;99054.56;;;3.40;nan
63694;BME280;49839;51.798;10.954;2023-04-26T00:41:13;99052.88;;;3.39;nan
63694;BME280;49839;51.798;10.954;2023-04-26T00:43:41;99049.47;;;3.37;nan
63694;BME280;49839;51.798;10.954;2023-04-26T00:46:09;99046.03;;;3.35;nan
63694;BME280;49839;51.798;10.954;2023-04-26T00:48:36;99049.41;;;3.38;nan
63694;BME280;49839;51.798;10.954;2023-04-26T00:51:04;99045.19;;;3.34;nan
63694;BME280;49839;51.798;10.954;2023-04-26T00:53:33;99045.22;;;3.33;nan
63694;BME280;49839;51.798;10.954;2023-04-26T00:56:02;99041.81;;;3.31;nan
63694;BME280;49839;51.798;10.954;2023-04-26T00:58:33;99041.88;;;3.29;nan
63694;BME280;49839;51.798;10.954;2023-04-26T01:01:00;99048.88;;;3.25;nan
63694;BME280;49839;51.798;10.954;2023-04-26T01:03:29;99054.09;;;3.25;nan
63694;BME280;49839;51.798;10.954;2023-04-26T01:05:57;99050.59;;;3.26;nan
63694;BME280;49839;51.798;10.954;2023-04-26T01:08:25;99044.56;;;3.24;nan
63694;BME280;49839;51.798;10.954;2023-04-26T01:10:53;99043.78;;;3.22;nan
63694;BME280;49839;51.798;10.954;2023-04-26T01:13:23;99049.00;;;3.21;nan
63694;BME280;49839;51.798;10.954;2023-04-26T01:15:52;99051.66;;;3.19;nan
63694;BME280;49839;51.798;10.954;2023-04-26T01:18:21;99053.44;;;3.17;nan
63694;BME280;49839;51.798;10.954;2023-04-26T01:20:49;99052.59;;;3.17;nan
63694;BME280;49839;51.798;10.954;2023-04-26T01:23:19;99057.88;;;3.14;nan
63694;BME280;49839;51.798;10.954;2023-04-26T01:25:47;99061.31;;;3.16;nan
63694;BME280;49839;51.798;10.954;2023-04-26T01:28:15;99054.47;;;3.12;nan
63694;BME280;49839;51.798;10.954;2023-04-26T01:30:43;99057.06;;;3.12;nan
63694;BME280;49839;51.798;10.954;2023-04-26T01:33:11;99064.06;;;3.08;nan
63694;BME280;49839;51.798;10.954;2023-04-26T01:35:40;99062.38;;;3.07;nan
63694;BME280;49839;51.798;10.954;2023-04-26T01:38:08;99066.72;;;3.07;nan
63694;BME280;49839;51.798;10.954;2023-04-26T01:40:37;99063.28;;;3.06;nan
63694;BME280;49839;51.798;10.954;2023-04-26T01:43:09;99058.06;;;3.06;nan
63694;BME280;49839;51.798;10.954;2023-04-26T01:45:37;99063.22;;;3.08;nan
63694;BME280;49839;51.798;10.954;2023-04-26T01:48:05;99065.88;;;3.06;nan
63694;BME280;49839;51.798;10.954;2023-04-26T01:50:34;99064.97;;;3.07;nan
63694;BME280;49839;51.798;10.954;2023-04-26T01:53:01;99058.13;;;3.05;nan
63694;BME280;49839;51.798;10.954;2023-04-26T01:55:30;99059.00;;;3.04;nan
63694;BME280;49839;51.798;10.954;2023-04-26T01:57:59;99062.56;;;2.99;nan
63694;BME280;49839;51.798;10.954;2023-04-26T02:00:27;99061.69;;;3.01;nan
63694;BME280;49839;51.798;10.954;2023-04-26T02:02:55;99062.63;;;2.98;nan
63694;BME280;49839;51.798;10.954;2023-04-26T02:05:23;99055.78;;;2.94;nan
63694;BME280;49839;51.798;10.954;2023-04-26T02:07:51;99058.41;;;2.92;nan
63694;BME280;49839;51.798;10.954;2023-04-26T02:10:19;99055.78;;;2.94;nan
63694;BME280;49839;51.798;10.954;2023-04-26T02:12:46;99056.72;;;2.91;nan
63694;BME280;49839;51.798;10.954;2023-04-26T02:15:15;99063.63;;;2.92;nan
63694;BME280;49839;51.798;10.954;2023-04-26T02:17:43;99057.53;;;2.93;nan
63694;BME280;49839;51.798;10.954;2023-04-26T02:20:11;99058.47;;;2.89;nan
63694;BME280;49839;51.798;10.954;2023-04-26T02:22:39;99062.81;;;2.89;nan
63694;BME280;49839;51.798;10.954;2023-04-26T02:25:07;99057.66;;;2.87;nan
63694;BME280;49839;51.798;10.954;2023-04-26T02:27:35;99060.28;;;2.87;nan
63694;BME280;49839;51.798;10.954;2023-04-26T02:30:03;99066.31;;;2.88;nan
63694;BME280;49839;51.798;10.954;2023-04-26T02:32:32;99056.88;;;2.85;nan
63694;BME280;49839;51.798;10.954;2023-04-26T02:35:00;99062.97;;;2.84;nan
63694;BME280;49839;51.798;10.954;2023-04-26T02:37:28;99062.13;;;2.82;nan
63694;BME280;49839;51.798;10.954;2023-04-26T02:39:55;99066.47;;;2.82;nan
63694;BME280;49839;51.798;10.954;2023-04-26T02:42:23;99060.47;;;2.80;nan
63694;BME280;49839;51.798;10.954;2023-04-26T02:44:51;99063.06;;;2.80;nan
63694;BME280;49839;51.798;10.954;2023-04-26T02:47:19;99066.56;;;2.79;nan
63694;BME280;49839;51.798;10.954;2023-04-26T02:49:48;99064.81;;;2.79;nan
63694;BME280;49839;51.798;10.954;2023-04-26T02:52:16;99066.56;;;2.79;nan
63694;BME280;49839;51.798;10.954;2023-04-26T02:54:44;99063.97;;;2.79;nan
63694;BME280;49839;51.798;10.954;2023-04-26T02:57:12;99064.88;;;2.76;nan
63694;BME280;49839;51.798;10.954;2023-04-26T02:59:39;99058.81;;;2.76;nan
63694;BME280;49839;51.798;10.954;2023-04-26T03:02:07;99067.47;;;2.76;nan
63694;BME280;49839;51.798;10.954;2023-04-26T03:04:35;99061.41;;;2.76;nan
63694;BME280;49839;51.798;10.954;2023-04-26T03:07:05;99060.63;;;2.74;nan
63694;BME280;49839;51.798;10.954;2023-04-26T03:09:32;99057.16;;;2.73;nan
63694;BME280;49839;51.798;10.954;2023-04-26T03:12:04;99058.94;;;2.71;nan
63694;BME280;49839;51.798;10.954;2023-04-26T03:14:32;99068.53;;;2.69;nan
63694;BME280;49839;51.798;10.954;2023-04-26T03:17:00;99066.81;;;2.68;nan
63694;BME280;49839;51.798;10.954;2023-04-26T03:19:28;99063.41;;;2.66;nan
63694;BME280;49839;51.798;10.954;2023-04-26T03:21:55;99064.22;;;2.68;nan
63694;BME280;49839;51.798;10.954;2023-04-26T03:24:24;99063.34;;;2.67;nan
63694;BME280;49839;51.798;10.954;2023-04-26T03:26:52;99061.66;;;2.66;nan
63694;BME280;49839;51.798;10.954;2023-04-26T03:29:20;99059.06;;;2.66;nan
63694;BME280;49839;51.798;10.954;2023-04-26T03:31:47;99059.84;;;2.68;nan
63694;BME280;49839;51.798;10.954;2023-04-26T03:34:15;99054.66;;;2.68;nan
63694;BME280;49839;51.798;10.954;2023-04-26T03:36:43;99059.00;;;2.68;nan
63694;BME280;49839;51.798;10.954;2023-04-26T03:39:10;99066.78;;;2.69;nan
63694;BME280;49839;51.798;10.954;2023-04-26T03:41:39;99072.88;;;2.68;nan
63694;BME280;49839;51.798;10.954;2023-04-26T03:44:07;99060.69;;;2.70;nan
63694;BME280;49839;51.798;10.954;2023-04-26T03:46:35;99059.81;;;2.71;nan
63694;BME280;49839;51.798;10.954;2023-04-26T03:49:02;99060.75;;;2.67;nan
63694;BME280;49839;51.798;10.954;2023-04-26T03:51:30;99064.22;;;2.68;nan
63694;BME280;49839;51.798;10.954;2023-04-26T03:53:58;99062.56;;;2.65;nan
63694;BME280;49839;51.798;10.954;2023-04-26T03:56:26;99061.72;;;2.63;nan
63694;BME280;49839;51.798;10.954;2023-04-26T03:58:55;99066.91;;;2.63;nan
63694;BME280;49839;51.798;10.954;2023-04-26T04:01:22;99064.34;;;2.62;nan
63694;BME280;49839;51.798;10.954;2023-04-26T04:03:51;99067.81;;;2.62;nan
63694;BME280;49839;51.798;10.954;2023-04-26T04:06:19;99070.38;;;2.64;nan
63694;BME280;49839;51.798;10.954;2023-04-26T04:08:47;99069.41;;;2.68;nan
63694;BME280;49839;51.798;10.954;2023-04-26T04:11:15;99072.81;;;2.71;nan
63694;BME280;49839;51.798;10.954;2023-04-26T04:13:42;99081.34;;;2.77;nan
63694;BME280;49839;51.798;10.954;2023-04-26T04:16:11;99078.63;;;2.81;nan
63694;BME280;49839;51.798;10.954;2023-04-26T04:18:39;99078.59;;;2.84;nan
63694;BME280;49839;51.798;10.954;2023-04-26T04:21:07;99073.09;;;2.95;nan
63694;BME280;49839;51.798;10.954;2023-04-26T04:23:34;99071.03;;;3.09;nan
63694;BME280;49839;51.798;10.954;2023-04-26T04:26:02;99071.63;;;3.19;nan
63694;BME280;49839;51.798;10.954;2023-04-26T04:28:30;99070.56;;;3.26;nan
63694;BME280;49839;51.798;10.954;2023-04-26T04:30:58;99077.13;;;3.41;nan
63694;BME280;49839;51.798;10.954;2023-04-26T04:33:27;99077.53;;;3.58;nan
63694;BME280;49839;51.798;10.954;2023-04-26T04:35:55;99083.09;;;3.77;nan
63694;BME280;49839;51.798;10.954;2023-04-26T04:38:24;99086.38;;;3.84;nan
63694;BME280;49839;51.798;10.954;2023-04-26T04:40:51;99082.47;;;3.98;nan
63694;BME280;49839;51.798;10.954;2023-04-26T04:43:19;99086.09;;;3.94;nan
63694;BME280;49839;51.798;10.954;2023-04-26T04:45:46;99084.13;;;4.02;nan
63694;BME280;49839;51.798;10.954;2023-04-26T04:48:14;99077.88;;;4.08;nan
63694;BME280;49839;51.798;10.954;2023-04-26T04:50:43;99086.44;;;4.13;nan
63694;BME280;49839;51.798;10.954;2023-04-26T04:53:11;99092.50;;;4.12;nan
63694;BME280;49839;51.798;10.954;2023-04-26T04:55:39;99089.03;;;4.13;nan
63694;BME280;49839;51.798;10.954;2023-04-26T04:58:06;99092.50;;;4.12;nan
63694;BME280;49839;51.798;10.954;2023-04-26T05:00:34;99101.28;;;4.10;nan
63694;BME280;49839;51.798;10.954;2023-04-26T05:03:03;99108.16;;;4.12;nan
63694;BME280;49839;51.798;10.954;2023-04-26T05:05:31;99102.88;;;4.15;nan
63694;BME280;49839;51.798;10.954;2023-04-26T05:08:00;99105.34;;;4.20;nan
63694;BME280;49839;51.798;10.954;2023-04-26T05:10:28;99107.81;;;4.24;nan
63694;BME280;49839;51.798;10.954;2023-04-26T05:12:55;99107.44;;;4.37;nan
63694;BME280;49839;51.798;10.954;2023-04-26T05:15:23;99113.44;;;4.40;nan
63694;BME280;49839;51.798;10.954;2023-04-26T05:17:51;99106.38;;;4.44;nan
63694;BME280;49839;51.798;10.954;2023-04-26T05:20:21;99100.09;;;4.49;nan
63694;BME280;49839;51.798;10.954;2023-04-26T05:22:48;99106.09;;;4.53;nan
63694;BME280;49839;51.798;10.954;2023-04-26T05:25:17;99106.09;;;4.53;nan
63694;BME280;49839;51.798;10.954;2023-04-26T05:27:47;99109.25;;;4.64;nan
63694;BME280;49839;51.798;10.954;2023-04-26T05:30:15;99112.09;;;4.83;nan
63694;BME280;49839;51.798;10.954;2023-04-26T05:32:43;99112.75;;;4.91;nan
63694;BME280;49839;51.798;10.954;2023-04-26T05:35:11;99120.22;;;5.02;nan
63694;BME280;49839;51.798;10.954;2023-04-26T05:37:38;99115.22;;;5.22;nan
63694;BME280;49839;51.798;10.954;2023-04-26T05:40:07;99114.59;;;5.65;nan
63694;BME280;49839;51.798;10.954;2023-04-26T05:42:38;99111.00;;;5.94;nan
63694;BME280;49839;51.798;10.954;2023-04-26T05:45:07;99113.19;;;6.05;nan
63694;BME280;49839;51.798;10.954;2023-04-26T05:47:35;99112.81;;;6.39;nan
63694;BME280;49839;51.798;10.954;2023-04-26T05:50:04;99113.75;;;6.82;nan
63694;BME280;49839;51.798;10.954;2023-04-26T05:52:32;99115.53;;;7.03;nan
63694;BME280;49839;51.798;10.954;2023-04-26T05:54:59;99110.53;;;7.40;nan
63694;BME280;49839;51.798;10.954;2023-04-26T05:57:29;99107.94;;;7.80;nan
63694;BME280;49839;51.798;10.954;2023-04-26T06:00:01;99114.53;;;7.89;nan
63694;BME280;49839;51.798;10.954;2023-04-26T06:02:30;99117.84;;;8.13;nan
63694;BME280;49839;51.798;10.954;2023-04-26T06:04:58;99117.63;;;8.38;nan
63694;BME280;49839;51.798;10.954;2023-04-26T06:07:26;99115.34;;;8.49;nan
63694;BME280;49839;51.798;10.954;2023-04-26T06:09:54;99115.81;;;8.95;nan
63694;BME280;49839;51.798;10.954;2023-04-26T06:12:21;99115.44;;;8.66;nan
63694;BME280;49839;51.798;10.954;2023-04-26T06:14:49;99118.25;;;8.81;nan
63694;BME280;49839;51.798;10.954;2023-04-26T06:17:18;99116.59;;;9.14;nan
63694;BME280;49839;51.798;10.954;2023-04-26T06:19:46;99120.75;;;8.84;nan
63694;BME280;49839;51.798;10.954;2023-04-26T06:22:14;99120.28;;;9.46;nan
63694;BME280;49839;51.798;10.954;2023-04-26T06:24:42;99114.31;;;9.77;nan
63694;BME280;49839;51.798;10.954;2023-04-26T06:27:09;99119.91;;;10.04;nan
63694;BME280;49839;51.798;10.954;2023-04-26T06:29:37;99123.38;;;10.22;nan
63694;BME280;49839;51.798;10.954;2023-04-26T06:32:05;99116.69;;;10.50;nan
63694;BME280;49839;51.798;10.954;2023-04-26T06:34:34;99116.50;;;10.53;nan
63694;BME280;49839;51.798;10.954;2023-04-26T06:37:03;99116.63;;;10.01;nan
63694;BME280;49839;51.798;10.954;2023-04-26T06:39:30;99120.38;;;10.13;nan
63694;BME280;49839;51.798;10.954;2023-04-26T06:41:58;99110.81;;;9.94;nan
63694;BME280;49839;51.798;10.954;2023-04-26T06:44:27;99109.91;;;9.78;nan
63694;BME280;49839;51.798;10.954;2023-04-26T06:46:56;99116.41;;;10.21;nan
63694;BME280;49839;51.798;10.954;2023-04-26T06:49:24;99108.59;;;10.20;nan
63694;BME280;49839;51.798;10.954;2023-04-26T06:51:53;99111.47;;;10.15;nan
63694;BME280;49839;51.798;10.954;2023-04-26T06:54:21;99113.78;;;10.86;nan
63694;BME280;49839;51.798;10.954;2023-04-26T06:56:48;99120.66;;;10.57;nan
63694;BME280;49839;51.798;10.954;2023-04-26T06:59:16;99119.13;;;11.00;nan
63694;BME280;49839;51.798;10.954;2023-04-26T07:01:44;99116.84;;;11.40;nan
63694;BME280;49839;51.798;10.954;2023-04-26T07:04:12;99116.41;;;11.48;nan
63694;BME280;49839;51.798;10.954;2023-04-26T07:06:40;99129.59;;;11.02;nan
63694;BME280;49839;51.798;10.954;2023-04-26T07:09:09;99127.56;;;10.91;nan
63694;BME280;49839;51.798;10.954;2023-04-26T07:11:37;99124.63;;;11.27;nan
63694;BME280;49839;51.798;10.954;2023-04-26T07:14:05;99125.28;;;10.69;nan
63694;BME280;49839;51.798;10.954;2023-04-26T07:16:32;99130.41;;;10.22;nan
63694;BME280;49839;51.798;10.954;2023-04-26T07:19:00;99126.84;;;9.90;nan
63694;BME280;49839;51.798;10.954;2023-04-26T07:21:28;99131.69;;;9.47;nan
63694;BME280;49839;51.798;10.954;2023-04-26T07:23:55;99137.59;;;9.33;nan
63694;BME280;49839;51.798;10.954;2023-04-26T07:26:25;99138.16;;;9.22;nan
63694;BME280;49839;51.798;10.954;2023-04-26T07:28:52;99140.09;;;9.71;nan
63694;BME280;49839;51.798;10.954;2023-04-26T07:31:20;99146.63;;;9.10;nan
63694;BME280;49839;51.798;10.954;2023-04-26T07:33:48;99143.69;;;8.61;nan
63694;BME280;49839;51.798;10.954;2023-04-26T07:36:16;99151.81;;;8.36;nan
63694;BME280;49839;51.798;10.954;2023-04-26T07:38:43;99153.91;;;8.86;nan
63694;BME280;49839;51.798;10.954;2023-04-26T07:41:11;99152.84;;;9.44;nan
63694;BME280;49839;51.798;10.954;2023-04-26T07:43:40;99148.56;;;10.28;nan
63694;BME280;49839;51.798;10.954;2023-04-26T07:46:08;99155.25;;;10.67;nan
63694;BME280;49839;51.798;10.954;2023-04-26T07:48:35;99150.25;;;10.94;nan
63694;BME280;49839;51.798;10.954;2023-04-26T07:51:07;99152.00;;;9.95;nan
63694;BME280;49839;51.798;10.954;2023-04-26T07:53:35;99149.78;;;9.70;nan
63694;BME280;49839;51.798;10.954;2023-04-26T07:56:03;99144.13;;;9.61;nan
63694;BME280;49839;51.798;10.954;2023-04-26T07:58:31;99145.16;;;10.09;nan
63694;BME280;49839;51.798;10.954;2023-04-26T08:01:00;99151.25;;;10.75;nan
63694;BME280;49839;51.798;10.954;2023-04-26T08:03:29;99159.72;;;10.16;nan
63694;BME280;49839;51.798;10.954;2023-04-26T08:05:57;99154.28;;;9.68;nan
63694;BME280;49839;51.798;10.954;2023-04-26T08:08:25;99154.56;;;9.28;nan
63694;BME280;49839;51.798;10.954;2023-04-26T08:10:53;99171.00;;;8.95;nan
63694;BME280;49839;51.798;10.954;2023-04-26T08:13:21;99157.75;;;8.79;nan
63694;BME280;49839;51.798;10.954;2023-04-26T08:15:51;99156.34;;;9.62;nan
63694;BME280;49839;51.798;10.954;2023-04-26T08:18:20;99156.19;;;10.50;nan
63694;BME280;49839;51.798;10.954;2023-04-26T08:20:48;99157.81;;;10.68;nan
63694;BME280;49839;51.798;10.954;2023-04-26T08:23:15;99154.56;;;10.47;nan
63694;BME280;49839;51.798;10.954;2023-04-26T08:25:44;99153.91;;;10.26;nan
63694;BME280;49839;51.798;10.954;2023-04-26T08:28:13;99153.25;;;10.06;nan
63694;BME280;49839;51.798;10.954;2023-04-26T08:30:41;99146.06;;;9.57;nan
63694;BME280;49839;51.798;10.954;2023-04-26T08:33:09;99156.19;;;9.47;nan
63694;BME280;49839;51.798;10.954;2023-04-26T08:35:38;99161.28;;;9.50;nan
63694;BME280;49839;51.798;10.954;2023-04-26T08:38:05;99156.81;;;9.35;nan
63694;BME280;49839;51.798;10.954;2023-04-26T08:40:35;99152.34;;;8.82;nan
63694;BME280;49839;51.798;10.954;2023-04-26T08:43:02;99163.84;;;8.80;nan
63694;BME280;49839;51.798;10.954;2023-04-26T08:45:30;99161.47;;;9.11;nan
63694;BME280;49839;51.798;10.954;2023-04-26T08:48:02;99156.78;;;8.99;nan
63694;BME280;49839;51.798;10.954;2023-04-26T08:50:32;99163.72;;;8.83;nan
63694;BME280;49839;51.798;10.954;2023-04-26T08:53:02;99158.47;;;9.19;nan
63694;BME280;49839;51.798;10.954;2023-04-26T08:55:30;99150.00;;;10.00;nan
63694;BME280;49839;51.798;10.954;2023-04-26T08:58:00;99151.34;;;10.74;nan
63694;BME280;49839;51.798;10.954;2023-04-26T09:00:28;99136.31;;;10.76;nan
63694;BME280;49839;51.798;10.954;2023-04-26T09:02:57;99144.56;;;10.85;nan
63694;BME280;49839;51.798;10.954;2023-04-26T09:05:24;99138.06;;;11.07;nan
63694;BME280;49839;51.798;10.954;2023-04-26T09:07:55;99138.50;;;11.61;nan
63694;BME280;49839;51.798;10.954;2023-04-26T09:10:25;99137.63;;;11.30;nan
63694;BME280;49839;51.798;10.954;2023-04-26T09:12:54;99147.72;;;10.92;nan
63694;BME280;49839;51.798;10.954;2023-04-26T09:15:23;99143.63;;;10.87;nan
63694;BME280;49839;51.798;10.954;2023-04-26T09:17:51;99150.00;;;10.51;nan
63694;BME280;49839;51.798;10.954;2023-04-26T09:20:21;99155.13;;;10.37;nan
63694;BME280;49839;51.798;10.954;2023-04-26T09:22:51;99150.13;;;10.48;nan
63694;BME280;49839;51.798;10.954;2023-04-26T09:25:28;99148.47;;;10.94;nan
63694;BME280;49839;51.798;10.954;2023-04-26T09:27:56;99149.88;;;11.31;nan
63694;BME280;49839;51.798;10.954;2023-04-26T09:30:25;99144.25;;;11.98;nan
63694;BME280;49839;51.798;10.954;2023-04-26T09:32:54;99149.56;;;11.52;nan
63694;BME280;49839;51.798;10.954;2023-04-26T09:35:25;99147.78;;;11.06;nan
63694;BME280;49839;51.798;10.954;2023-04-26T09:37:55;99151.31;;;11.53;nan
63694;BME280;49839;51.798;10.954;2023-04-26T09:40:32;99148.34;;;11.73;nan
63694;BME280;49839;51.798;10.954;2023-04-26T09:43:02;99161.91;;;11.51;nan
63694;BME280;49839;51.798;10.954;2023-04-26T09:45:31;99161.22;;;11.33;nan
63694;BME280;49839;51.798;10.954;2023-04-26T09:48:18;99152.09;;;10.44;nan
63694;BME280;49839;51.798;10.954;2023-04-26T09:50:48;99164.84;;;10.19;nan
63694;BME280;49839;51.798;10.954;2023-04-26T09:53:28;99169.41;;;9.98;nan
63694;BME280;49839;51.798;10.954;2023-04-26T09:56:06;99163.81;;;10.21;nan
63694;BME280;49839;51.798;10.954;2023-04-26T09:58:36;99164.69;;;10.55;nan
63694;BME280;49839;51.798;10.954;2023-04-26T10:01:04;99166.44;;;10.21;nan
63694;BME280;49839;51.798;10.954;2023-04-26T10:03:33;99171.38;;;10.45;nan
63694;BME280;49839;51.798;10.954;2023-04-26T10:06:01;99165.41;;;10.90;nan
63694;BME280;49839;51.798;10.954;2023-04-26T10:08:30;99167.88;;;11.55;nan
63694;BME280;49839;51.798;10.954;2023-04-26T10:11:00;99166.53;;;11.48;nan
63694;BME280;49839;51.798;10.954;2023-04-26T10:13:30;99174.50;;;11.00;nan
63694;BME280;49839;51.798;10.954;2023-04-26T10:15:59;99172.72;;;10.85;nan
63694;BME280;49839;51.798;10.954;2023-04-26T10:18:27;99171.00;;;10.84;nan
63694;BME280;49839;51.798;10.954;2023-04-26T10:20:59;99169.84;;;10.41;nan
63694;BME280;49839;51.798;10.954;2023-04-26T10:23:27;99169.03;;;10.06;nan
63694;BME280;49839;51.798;10.954;2023-04-26T10:25:55;99173.22;;;9.75;nan
63694;BME280;49839;51.798;10.954;2023-04-26T10:28:55;99176.69;;;10.10;nan
63694;BME280;49839;51.798;10.954;2023-04-26T10:34:31;99169.94;;;10.04;nan
63694;BME280;49839;51.798;10.954;2023-04-26T10:37:05;99165.47;;;10.07;nan
63694;BME280;49839;51.798;10.954;2023-04-26T10:39:34;99161.72;;;10.11;nan
63694;BME280;49839;51.798;10.954;2023-04-26T10:42:23;99154.13;;;10.22;nan
63694;BME280;49839;51.798;10.954;2023-04-26T10:44:53;99160.75;;;10.30;nan
63694;BME280;49839;51.798;10.954;2023-04-26T10:47:26;99158.13;;;10.62;nan
63694;BME280;49839;51.798;10.954;2023-04-26T10:50:01;99161.81;;;11.23;nan
63694;BME280;49839;51.798;10.954;2023-04-26T10:52:31;99151.91;;;11.42;nan
63694;BME280;49839;51.798;10.954;2023-04-26T10:54:59;99156.56;;;11.53;nan
63694;BME280;49839;51.798;10.954;2023-04-26T10:57:51;99163.00;;;11.63;nan
63694;BME280;49839;51.798;10.954;2023-04-26T11:00:30;99151.66;;;11.47;nan
63694;BME280;49839;51.798;10.954;2023-04-26T11:03:02;99154.91;;;11.20;nan
63694;BME280;49839;51.798;10.954;2023-04-26T11:05:35;99158.69;;;10.84;nan
63694;BME280;49839;51.798;10.954;2023-04-26T11:08:04;99156.44;;;10.61;nan
63694;BME280;49839;51.798;10.954;2023-04-26T11:10:32;99164.03;;;10.17;nan
63694;BME280;49839;51.798;10.954;2023-04-26T11:13:02;99163.28;;;10.15;nan
63694;BME280;49839;51.798;10.954;2023-04-26T11:15:31;99162.09;;;10.20;nan
63694;BME280;49839;51.798;10.954;2023-04-26T11:18:01;99165.59;;;10.21;nan
63694;BME280;49839;51.798;10.954;2023-04-26T11:20:29;99172.56;;;10.22;nan
63694;BME280;49839;51.798;10.954;2023-04-26T11:22:58;99159.09;;;10.11;nan
63694;BME280;49839;51.798;10.954;2023-04-26T11:25:26;99158.03;;;9.97;nan
63694;BME280;49839;51.798;10.954;2023-04-26T11:27:58;99158.06;;;9.63;nan
63694;BME280;49839;51.798;10.954;2023-04-26T11:30:28;99160.69;;;9.63;nan
63694;BME280;49839;51.798;10.954;2023-04-26T11:32:58;99154.56;;;9.62;nan
63694;BME280;49839;51.798;10.954;2023-04-26T11:35:27;99157.28;;;9.61;nan
63694;BME280;49839;51.798;10.954;2023-04-26T11:37:59;99146.75;;;9.78;nan
63694;BME280;49839;51.798;10.954;2023-04-26T11:40:28;99145.03;;;9.94;nan
63694;BME280;49839;51.798;10.954;2023-04-26T11:42:59;99153.47;;;9.84;nan
63694;BME280;49839;51.798;10.954;2023-04-26T11:45:30;99141.16;;;10.01;nan
63694;BME280;49839;51.798;10.954;2023-04-26T11:48:00;99152.31;;;10.07;nan
63694;BME280;49839;51.798;10.954;2023-04-26T11:50:30;99143.53;;;10.23;nan
63694;BME280;49839;51.798;10.954;2023-04-26T11:53:02;99141.94;;;10.37;nan
63694;BME280;49839;51.798;10.954;2023-04-26T11:55:31;99145.66;;;10.50;nan
63694;BME280;49839;51.798;10.954;2023-04-26T11:57:59;99138.97;;;10.43;nan
63694;BME280;49839;51.798;10.954;2023-04-26T12:00:28;99144.00;;;10.32;nan
63694;BME280;49839;51.798;10.954;2023-04-26T12:02:56;99150.44;;;10.26;nan
63694;BME280;49839;51.798;10.954;2023-04-26T12:05:27;99151.38;;;10.25;nan
63694;BME280;49839;51.798;10.954;2023-04-26T12:07:57;99156.56;;;10.26;nan
63694;BME280;49839;51.798;10.954;2023-04-26T12:10:26;99143.41;;;10.42;nan
63694;BME280;49839;51.798;10.954;2023-04-26T12:12:55;99150.16;;;10.64;nan
63694;BME280;49839;51.798;10.954;2023-04-26T12:15:28;99155.03;;;11.03;nan
63694;BME280;49839;51.798;10.954;2023-04-26T12:17:58;99151.31;;;11.37;nan
63694;BME280;49839;51.798;10.954;2023-04-26T12:20:29;99145.00;;;11.70;nan
63694;BME280;49839;51.798;10.954;2023-04-26T12:22:59;99151.00;;;11.57;nan
63694;BME280;49839;51.798;10.954;2023-04-26T12:25:26;99155.69;;;11.22;nan
63694;BME280;49839;51.798;10.954;2023-04-26T12:27:56;99155.94;;;10.86;nan
63694;BME280;49839;51.798;10.954;2023-04-26T12:30:24;99159.03;;;10.78;nan
63694;BME280;49839;51.798;10.954;2023-04-26T12:32:52;99160.84;;;10.45;nan
63694;BME280;49839;51.798;10.954;2023-04-26T12:35:25;99167.22;;;10.23;nan
63694;BME280;49839;51.798;10.954;2023-04-26T12:37:54;99157.25;;;9.95;nan
63694;BME280;49839;51.798;10.954;2023-04-26T12:40:22;99164.63;;;9.71;nan
63694;BME280;49839;51.798;10.954;2023-04-26T12:42:50;99161.53;;;9.63;nan
63694;BME280;49839;51.798;10.954;2023-04-26T12:45:18;99158.44;;;9.55;nan
63694;BME280;49839;51.798;10.954;2023-04-26T12:47:46;99157.84;;;9.67;nan
63694;BME280;49839;51.798;10.954;2023-04-26T12:50:15;99164.09;;;9.82;nan
63694;BME280;49839;51.798;10.954;2023-04-26T12:52:44;99150.22;;;9.96;nan
63694;BME280;49839;51.798;10.954;2023-04-26T12:55:14;99150.94;;;9.99;nan
63694;BME280;49839;51.798;10.954;2023-04-26T12:57:42;99149.91;;;10.02;nan
63694;BME280;49839;51.798;10.954;2023-04-26T13:00:13;99149.13;;;10.00;nan
63694;BME280;49839;51.798;10.954;2023-04-26T13:02:42;99161.84;;;9.92;nan
63694;BME280;49839;51.798;10.954;2023-04-26T13:05:10;99158.06;;;9.80;nan
63694;BME280;49839;51.798;10.954;2023-04-26T13:07:39;99148.78;;;9.56;nan
63694;BME280;49839;51.798;10.954;2023-04-26T13:10:07;99151.19;;;9.60;nan
63694;BME280;49839;51.798;10.954;2023-04-26T13:12:39;99153.41;;;9.68;nan
63694;BME280;49839;51.798;10.954;2023-04-26T13:15:07;99165.88;;;9.47;nan
63694;BME280;49839;51.798;10.954;2023-04-26T13:17:36;99161.81;;;9.40;nan
63694;BME280;49839;51.798;10.954;2023-04-26T13:20:05;99169.19;;;9.50;nan
63694;BME280;49839;51.798;10.954;2023-04-26T13:22:33;99176.16;;;9.52;nan
63694;BME280;49839;51.798;10.954;2023-04-26T13:25:01;99168.66;;;9.61;nan
63694;BME280;49839;51.798;10.954;2023-04-26T13:27:29;99174.31;;;9.54;nan
63694;BME280;49839;51.798;10.954;2023-04-26T13:29:58;99163.84;;;9.52;nan